Time;durP1;ratioP1;P1;durP2;ratioP2;P2;SDS_P1;SDS_P2;PMS_P1;PMS_P2;Temp;Humidity;BMP_temperature;BMP_pressure;BME280_temperature;BME280_humidity;BME280_pressure;Samples;Min_cycle;Max_cycle;Signal;HPM_P1;HPM_P2
2021/06/15 00:01:10;;;;;;;5.35;3.58;;;20.90;70.30;;;;;;5071032;28;20054;-77
2021/06/15 00:03:36;;;;;;;5.20;2.80;;;20.90;70.30;;;;;;5072367;28;20146;-76
2021/06/15 00:06:02;;;;;;;7.03;3.53;;;20.90;70.30;;;;;;5071277;28;20119;-76
2021/06/15 00:08:27;;;;;;;6.47;3.38;;;21.00;70.10;;;;;;5070892;28;20114;-75
2021/06/15 00:10:53;;;;;;;4.75;2.70;;;20.90;69.90;;;;;;5070338;28;20021;-77
2021/06/15 00:13:19;;;;;;;7.47;3.15;;;20.90;69.90;;;;;;5071861;28;20031;-76
2021/06/15 00:15:47;;;;;;;9.48;3.38;;;21.00;69.90;;;;;;5071118;28;20530;-77
2021/06/15 00:18:18;;;;;;;7.47;3.30;;;20.90;69.70;;;;;;5070818;28;20025;-76
2021/06/15 00:20:45;;;;;;;5.95;3.55;;;20.90;70.20;;;;;;5071654;28;20036;-77
2021/06/15 00:23:10;;;;;;;6.63;3.60;;;20.90;69.70;;;;;;5072244;28;20025;-76
2021/06/15 00:25:36;;;;;;;7.72;3.33;;;20.90;69.70;;;;;;5070497;28;20082;-77
2021/06/15 00:28:03;;;;;;;6.78;3.28;;;20.80;69.70;;;;;;5071348;28;20020;-76
2021/06/15 00:30:29;;;;;;;6.00;3.35;;;20.80;70.00;;;;;;5070681;28;20023;-76
2021/06/15 00:32:55;;;;;;;6.60;2.90;;;20.80;69.90;;;;;;5071346;28;20410;-77
2021/06/15 00:35:21;;;;;;;5.45;2.90;;;20.70;70.60;;;;;;5071972;28;20457;-77
2021/06/15 00:37:48;;;;;;;7.57;3.70;;;20.80;70.00;;;;;;5069859;28;20036;-76
2021/06/15 00:40:13;;;;;;;7.13;3.55;;;20.70;70.00;;;;;;5070237;28;20035;-77
2021/06/15 00:42:39;;;;;;;6.45;3.33;;;20.80;70.10;;;;;;5069982;28;20017;-77
2021/06/15 00:45:07;;;;;;;8.18;3.88;;;20.70;70.20;;;;;;5070882;28;20020;-76
2021/06/15 00:47:34;;;;;;;6.45;3.42;;;20.70;70.30;;;;;;5071874;28;20037;-77
2021/06/15 00:50:04;;;;;;;7.90;3.40;;;20.60;70.20;;;;;;5071184;28;20469;-76
2021/06/15 00:52:31;;;;;;;6.40;3.40;;;20.60;70.50;;;;;;5071943;28;20025;-76
2021/06/15 00:55:00;;;;;;;6.82;3.70;;;20.60;70.60;;;;;;5072693;28;20047;-76
2021/06/15 00:57:26;;;;;;;5.47;2.90;;;20.50;70.60;;;;;;5076125;28;20078;-77
2021/06/15 00:59:56;;;;;;;6.85;2.83;;;20.50;70.60;;;;;;5074751;28;20083;-76
2021/06/15 01:02:24;;;;;;;6.82;2.92;;;20.50;70.60;;;;;;5075426;28;20025;-75
2021/06/15 01:04:50;;;;;;;5.45;3.08;;;20.40;70.60;;;;;;5075100;28;20056;-76
2021/06/15 01:07:16;;;;;;;5.70;2.92;;;20.40;70.80;;;;;;5074191;28;20102;-76
2021/06/15 01:10:00;;;;;;;7.10;2.75;;;20.40;70.80;;;;;;5074258;28;20123;-77
2021/06/15 01:13:06;;;;;;;8.77;3.25;;;20.40;70.70;;;;;;5074118;28;20028;-75
2021/06/15 01:15:57;;;;;;;6.93;3.22;;;20.40;70.90;;;;;;5073769;28;20028;-76
2021/06/15 01:18:25;;;;;;;9.50;3.30;;;20.30;70.70;;;;;;5075450;28;20031;-76
2021/06/15 01:20:56;;;;;;;7.28;2.95;;;20.20;70.90;;;;;;5073390;28;20032;-77
2021/06/15 01:23:40;;;;;;;5.72;3.00;;;20.20;71.00;;;;;;5075641;28;20453;-77
2021/06/15 01:26:31;;;;;;;7.00;2.97;;;20.30;70.90;;;;;;5073187;28;20437;-76
2021/06/15 01:29:04;;;;;;;5.60;2.95;;;20.20;70.90;;;;;;5074680;28;20024;-76
2021/06/15 01:31:34;;;;;;;5.20;3.30;;;20.20;70.80;;;;;;5074075;28;20092;-76
2021/06/15 01:34:07;;;;;;;6.97;3.30;;;20.10;71.10;;;;;;5073237;28;20379;-77
2021/06/15 01:36:43;;;;;;;6.40;2.85;;;20.10;71.00;;;;;;5073909;28;20048;-76
2021/06/15 01:39:15;;;;;;;5.63;2.40;;;20.10;70.90;;;;;;5073177;28;20028;-77
2021/06/15 01:42:02;;;;;;;7.00;3.08;;;20.20;70.80;;;;;;5073675;28;20025;-76
2021/06/15 01:44:30;;;;;;;5.80;3.10;;;20.20;70.70;;;;;;5073561;28;20369;-77
2021/06/15 01:47:25;;;;;;;4.65;2.67;;;20.10;70.60;;;;;;5074157;28;20537;-77
2021/06/15 01:49:59;;;;;;;8.02;3.00;;;20.10;70.60;;;;;;5074412;28;20033;-76
2021/06/15 01:52:31;;;;;;;5.55;2.30;;;20.10;70.60;;;;;;5074844;28;20055;-76
2021/06/15 01:54:59;;;;;;;6.05;2.25;;;20.10;70.60;;;;;;5074002;28;20536;-77
2021/06/15 01:57:26;;;;;;;5.78;3.10;;;20.10;70.60;;;;;;5074723;28;20096;-76
2021/06/15 01:59:55;;;;;;;7.53;2.70;;;20.10;70.60;;;;;;5073988;28;20103;-76
2021/06/15 02:02:21;;;;;;;5.22;3.05;;;20.00;70.60;;;;;;5074634;28;20063;-76
2021/06/15 02:04:52;;;;;;;6.63;2.65;;;20.00;70.70;;;;;;5074853;28;20056;-76
2021/06/15 02:07:22;;;;;;;5.28;2.55;;;20.00;70.70;;;;;;5073259;28;20029;-76
2021/06/15 02:09:52;;;;;;;5.55;2.70;;;20.00;70.60;;;;;;5072619;28;20033;-80
2021/06/15 02:12:20;;;;;;;4.85;2.65;;;20.00;70.50;;;;;;5074407;28;20078;-76
2021/06/15 02:14:48;;;;;;;5.07;2.33;;;20.00;70.40;;;;;;5074540;28;20028;-76
2021/06/15 02:17:14;;;;;;;5.20;2.80;;;20.00;70.30;;;;;;5072744;28;20040;-77
2021/06/15 02:19:43;;;;;;;5.15;2.75;;;20.00;70.20;;;;;;5074382;28;20128;-76
2021/06/15 02:22:15;;;;;;;5.40;2.70;;;20.00;70.10;;;;;;5073663;28;20387;-76
2021/06/15 02:24:45;;;;;;;3.85;2.28;;;20.00;70.20;;;;;;5073254;28;20016;-77
2021/06/15 02:27:13;;;;;;;3.87;2.67;;;19.90;70.30;;;;;;5073634;28;20112;-76
2021/06/15 02:29:39;;;;;;;6.55;3.22;;;19.90;70.30;;;;;;5073996;28;20028;-76
2021/06/15 02:32:08;;;;;;;5.72;2.80;;;19.90;70.20;;;;;;5073607;28;20064;-76
2021/06/15 02:34:37;;;;;;;5.85;3.00;;;19.90;70.30;;;;;;5072991;28;20078;-76
2021/06/15 02:37:10;;;;;;;5.47;2.85;;;19.90;70.30;;;;;;5073478;28;20024;-75
2021/06/15 02:39:37;;;;;;;8.73;2.88;;;19.90;70.20;;;;;;5073961;28;20013;-76
2021/06/15 02:42:06;;;;;;;4.53;2.70;;;19.90;70.20;;;;;;5072306;28;20021;-77
2021/06/15 02:44:36;;;;;;;4.55;3.08;;;19.90;70.30;;;;;;5074023;28;20071;-77
2021/06/15 02:47:03;;;;;;;7.70;3.40;;;19.90;70.40;;;;;;5073423;28;20032;-76
2021/06/15 02:49:33;;;;;;;6.72;2.78;;;19.90;70.30;;;;;;5072587;28;20032;-76
2021/06/15 02:52:10;;;;;;;5.85;3.47;;;19.90;70.30;;;;;;5071758;28;20024;-76
2021/06/15 02:54:50;;;;;;;7.38;3.05;;;19.90;70.30;;;;;;5073526;28;20416;-76
2021/06/15 02:57:17;;;;;;;5.88;3.20;;;19.80;70.30;;;;;;5071714;28;20017;-76
2021/06/15 02:59:43;;;;;;;8.02;3.25;;;19.80;70.30;;;;;;5073620;28;20032;-81
2021/06/15 03:02:08;;;;;;;6.10;3.08;;;19.70;70.50;;;;;;5071794;28;20031;-76
2021/06/15 03:04:34;;;;;;;5.28;2.63;;;19.70;71.00;;;;;;5072145;28;20021;-77
2021/06/15 03:07:00;;;;;;;5.95;3.25;;;19.70;70.80;;;;;;5071524;28;20025;-76
2021/06/15 03:09:26;;;;;;;4.28;2.80;;;19.60;70.60;;;;;;5073102;28;20040;-76
2021/06/15 03:12:05;;;;;;;5.50;2.92;;;19.60;70.50;;;;;;5072055;28;20112;-76
2021/06/15 03:14:31;;;;;;;3.70;2.30;;;19.70;70.30;;;;;;5073166;28;20487;-76
2021/06/15 03:17:01;;;;;;;4.82;2.65;;;19.70;70.20;;;;;;5071078;28;20021;-78
2021/06/15 03:19:52;;;;;;;5.47;2.47;;;19.80;70.00;;;;;;5071938;28;20064;-77
2021/06/15 03:22:19;;;;;;;;;;;19.80;69.90;;;;;;5071927;28;20032;-77
2021/06/15 03:24:51;;;;;;;7.57;2.47;;;19.80;70.30;;;;;;5072667;28;19905;-76
2021/06/15 03:27:28;;;;;;;3.42;1.88;;;19.90;69.30;;;;;;5072313;28;20096;-77
2021/06/15 03:29:54;;;;;;;5.80;2.40;;;19.80;69.10;;;;;;5072431;28;20059;-78
2021/06/15 03:32:21;;;;;;;5.40;2.50;;;19.90;69.10;;;;;;5071611;28;20020;-76
2021/06/15 03:34:54;;;;;;;3.53;1.80;;;19.90;68.80;;;;;;5072750;28;20027;-77
2021/06/15 03:37:25;;;;;;;3.95;2.00;;;19.90;68.70;;;;;;5072597;28;20024;-76
2021/06/15 03:39:53;;;;;;;4.25;2.38;;;19.90;68.60;;;;;;5071263;28;20040;-77
2021/06/15 03:42:22;;;;;;;6.53;2.53;;;19.90;68.50;;;;;;5070784;28;20473;-77
2021/06/15 03:45:09;;;;;;;5.35;2.40;;;20.00;68.50;;;;;;5070834;28;20511;-77
2021/06/15 03:47:38;;;;;;;6.15;2.40;;;20.00;68.20;;;;;;5072732;28;20066;-76
2021/06/15 03:50:06;;;;;;;3.28;1.75;;;19.90;68.30;;;;;;5072037;28;20039;-78
2021/06/15 03:52:38;;;;;;;3.85;1.90;;;19.90;68.30;;;;;;5070928;28;20036;-76
2021/06/15 03:55:07;;;;;;;4.72;2.33;;;20.00;68.40;;;;;;5071865;28;20199;-77
2021/06/15 03:57:41;;;;;;;2.72;1.90;;;20.00;68.20;;;;;;5072084;28;20104;-76
2021/06/15 04:00:08;;;;;;;3.85;1.90;;;20.00;68.00;;;;;;5070590;28;20441;-77
2021/06/15 04:02:37;;;;;;;4.35;1.80;;;19.90;68.00;;;;;;5072375;28;20675;-76
2021/06/15 04:05:04;;;;;;;2.75;1.67;;;19.90;68.10;;;;;;5071676;28;20031;-77
2021/06/15 04:07:32;;;;;;;3.13;1.95;;;19.90;68.10;;;;;;5071179;28;20175;-76
2021/06/15 04:09:59;;;;;;;4.25;2.00;;;19.80;68.10;;;;;;5071614;28;20017;-76
2021/06/15 04:12:27;;;;;;;3.83;1.70;;;19.80;68.20;;;;;;5071897;28;20383;-77
2021/06/15 04:14:54;;;;;;;2.72;1.75;;;19.80;68.00;;;;;;5070849;28;20435;-76
2021/06/15 04:17:27;;;;;;;3.70;1.90;;;19.90;67.80;;;;;;5070193;28;20032;-76
2021/06/15 04:19:55;;;;;;;2.70;1.75;;;19.90;67.50;;;;;;5070778;28;20028;-76
2021/06/15 04:22:26;;;;;;;3.20;1.55;;;19.90;67.50;;;;;;5071470;28;20112;-77
2021/06/15 04:24:54;;;;;;;12.48;9.18;;;19.90;68.20;;;;;;5072038;28;20028;-77
2021/06/15 04:27:25;;;;;;;4.10;2.80;;;19.90;67.30;;;;;;5070057;28;20484;-76
2021/06/15 04:29:54;;;;;;;5.15;2.70;;;20.00;67.10;;;;;;5070240;28;20447;-76
2021/06/15 04:32:21;;;;;;;5.80;1.55;;;19.90;67.00;;;;;;5070077;28;20448;-76
2021/06/15 04:34:59;;;;;;;3.92;2.00;;;19.90;66.90;;;;;;5071607;28;20024;-77
2021/06/15 04:37:28;;;;;;;3.50;1.40;;;19.90;66.80;;;;;;5049015;28;20044;-77
2021/06/15 04:40:02;;;;;;;2.15;1.30;;;20.00;66.70;;;;;;5051513;28;20091;-76
2021/06/15 04:42:55;;;;;;;2.95;1.60;;;20.00;66.40;;;;;;5050488;28;20025;-77
2021/06/15 04:45:31;;;;;;;3.03;1.60;;;19.90;66.20;;;;;;5050907;28;20037;-76
2021/06/15 04:48:07;;;;;;;3.67;1.40;;;19.80;66.10;;;;;;5050490;28;20047;-76
2021/06/15 04:50:33;;;;;;;3.70;1.05;;;19.80;66.20;;;;;;5051715;28;20025;-76
2021/06/15 04:53:03;;;;;;;4.95;1.40;;;19.80;66.10;;;;;;5051704;28;20025;-76
2021/06/15 04:55:31;;;;;;;2.00;0.80;;;19.80;66.00;;;;;;5050332;28;20025;-75
2021/06/15 04:57:59;;;;;;;3.28;1.30;;;19.80;65.90;;;;;;5051338;28;20029;-76
2021/06/15 05:00:26;;;;;;;1.83;1.00;;;19.80;65.70;;;;;;5049665;28;20091;-76
2021/06/15 05:02:53;;;;;;;3.08;1.00;;;19.90;65.40;;;;;;5051785;28;20031;-76
2021/06/15 05:05:20;;;;;;;3.47;1.23;;;19.80;65.30;;;;;;5050633;28;20051;-78
2021/06/15 05:07:53;;;;;;;4.75;1.17;;;19.80;65.10;;;;;;5048766;28;20032;-80
2021/06/15 05:10:19;;;;;;;2.70;0.90;;;19.90;64.80;;;;;;5048004;28;20104;-75
2021/06/15 05:12:45;;;;;;;2.28;0.90;;;19.80;64.60;;;;;;5049128;28;20029;-75
2021/06/15 05:15:12;;;;;;;4.18;1.23;;;19.70;65.40;;;;;;5046605;28;20054;-76
2021/06/15 05:17:45;;;;;;;1.83;1.00;;;19.70;64.80;;;;;;5028787;28;20029;-76
2021/06/15 05:20:11;;;;;;;3.90;1.20;;;19.60;64.90;;;;;;5026877;28;20026;-76
2021/06/15 05:23:03;;;;;;;1.52;1.00;;;19.60;65.10;;;;;;5029386;28;20057;-76
2021/06/15 05:25:28;;;;;;;2.10;0.75;;;19.60;65.00;;;;;;5029642;28;20036;-77
2021/06/15 05:27:54;;;;;;;2.85;0.90;;;19.60;64.90;;;;;;5028116;28;20089;-78
2021/06/15 05:30:21;;;;;;;2.47;0.75;;;19.60;64.70;;;;;;5027355;28;20386;-78
2021/06/15 05:32:47;;;;;;;1.88;0.70;;;19.70;64.50;;;;;;5027461;28;20021;-76
2021/06/15 05:35:13;;;;;;;1.65;0.80;;;19.70;64.20;;;;;;5028589;28;20101;-76
2021/06/15 05:37:41;;;;;;;3.00;0.90;;;19.80;64.10;;;;;;5029125;28;20359;-76
2021/06/15 05:40:07;;;;;;;2.90;1.13;;;19.90;63.70;;;;;;5027144;28;20139;-74
2021/06/15 05:42:33;;;;;;;4.45;1.10;;;19.90;63.70;;;;;;5032756;28;20025;-77
2021/06/15 05:44:59;;;;;;;2.10;0.80;;;19.90;63.60;;;;;;5034445;28;20111;-76
2021/06/15 05:47:24;;;;;;;3.28;0.80;;;20.00;63.50;;;;;;5034231;28;20262;-77
2021/06/15 05:49:50;;;;;;;3.78;0.90;;;20.00;63.20;;;;;;5034861;28;20037;-77
2021/06/15 05:52:16;;;;;;;3.22;1.52;;;20.10;63.30;;;;;;5034427;28;20111;-76
2021/06/15 05:54:41;;;;;;;3.92;1.00;;;20.00;63.10;;;;;;5034909;28;20021;-76
2021/06/15 05:57:08;;;;;;;2.20;0.70;;;20.00;63.20;;;;;;5034329;28;20026;-78
2021/06/15 05:59:34;;;;;;;2.10;0.73;;;20.00;63.40;;;;;;5034502;28;20030;-76
2021/06/15 06:01:59;;;;;;;3.45;0.85;;;20.00;63.40;;;;;;5033315;28;20029;-77
2021/06/15 06:04:33;;;;;;;1.80;0.90;;;20.00;63.50;;;;;;5034329;28;20091;-76
2021/06/15 06:09:43;;;;;;;2.17;0.60;;;20.10;63.20;;;;;;5034339;28;20130;-76
2021/06/15 06:12:10;;;;;;;2.28;1.05;;;20.10;62.90;;;;;;5032586;28;20049;-77
2021/06/15 06:14:36;;;;;;;3.53;1.00;;;20.20;62.80;;;;;;5034535;28;20030;-77
2021/06/15 06:17:03;;;;;;;1.35;0.85;;;20.20;62.80;;;;;;5032838;28;20029;-76
2021/06/15 06:19:30;;;;;;;1.60;0.70;;;20.10;62.70;;;;;;5033374;28;20515;-77
2021/06/15 06:21:55;;;;;;;2.30;1.00;;;20.20;62.80;;;;;;5034406;28;20113;-76
2021/06/15 06:24:23;;;;;;;2.28;0.70;;;20.30;62.60;;;;;;5033414;28;20043;-77
2021/06/15 06:26:52;;;;;;;3.45;1.08;;;20.50;62.20;;;;;;5034229;28;20025;-77
2021/06/15 06:29:18;;;;;;;3.97;1.15;;;20.70;61.60;;;;;;5033468;28;20031;-77
2021/06/15 06:31:44;;;;;;;4.60;0.75;;;20.70;61.20;;;;;;5032748;28;20026;-77
2021/06/15 06:34:11;;;;;;;1.85;0.80;;;20.80;61.20;;;;;;5033246;28;20099;-77
2021/06/15 06:36:37;;;;;;;1.52;0.80;;;20.80;60.90;;;;;;5032694;28;20053;-77
2021/06/15 06:39:04;;;;;;;2.75;0.90;;;20.90;60.60;;;;;;5033941;28;20385;-78
2021/06/15 06:41:30;;;;;;;2.47;1.13;;;20.90;60.40;;;;;;5032038;28;20028;-77
2021/06/15 06:43:55;;;;;;;3.75;0.90;;;20.80;60.50;;;;;;5032839;28;20045;-76
2021/06/15 06:46:21;;;;;;;3.17;1.13;;;20.80;60.20;;;;;;5033359;28;20112;-77
2021/06/15 06:48:47;;;;;;;2.22;1.23;;;20.70;60.20;;;;;;5033652;28;20096;-77
2021/06/15 06:51:12;;;;;;;3.45;0.90;;;20.70;60.20;;;;;;5033026;28;20033;-77
2021/06/15 06:53:38;;;;;;;2.50;1.00;;;20.70;60.00;;;;;;5032012;28;20029;-77
2021/06/15 06:56:07;;;;;;;4.00;0.98;;;20.70;59.60;;;;;;5033183;28;20033;-77
2021/06/15 06:58:34;;;;;;;3.35;0.80;;;20.80;59.40;;;;;;5031767;28;20030;-78
2021/06/15 07:01:01;;;;;;;1.52;0.68;;;20.80;59.10;;;;;;5033832;28;20037;-77
2021/06/15 07:03:26;;;;;;;1.25;0.70;;;20.80;57.60;;;;;;5031559;28;20041;-78
2021/06/15 07:05:52;;;;;;;1.63;0.50;;;20.90;57.60;;;;;;5033074;28;20474;-77
2021/06/15 07:08:18;;;;;;;3.10;1.02;;;21.00;58.00;;;;;;5032551;28;20028;-76
2021/06/15 07:10:43;;;;;;;2.92;0.95;;;21.10;58.20;;;;;;5033333;28;20108;-76
2021/06/15 07:13:09;;;;;;;2.28;0.70;;;21.20;58.20;;;;;;5033483;28;20377;-78
2021/06/15 07:15:34;;;;;;;4.53;1.27;;;21.40;58.20;;;;;;5032231;28;20071;-77
2021/06/15 07:18:00;;;;;;;3.00;0.63;;;21.30;57.70;;;;;;5033176;28;20037;-77
2021/06/15 07:20:26;;;;;;;3.08;0.98;;;21.20;57.60;;;;;;5031017;28;20036;-77
2021/06/15 07:22:51;;;;;;;1.73;0.85;;;21.00;57.70;;;;;;5031654;28;20029;-78
2021/06/15 07:25:17;;;;;;;4.72;1.20;;;20.80;58.10;;;;;;5032481;28;20100;-77
2021/06/15 07:27:43;;;;;;;3.63;1.33;;;20.60;58.60;;;;;;5033143;28;20433;-78
2021/06/15 07:30:09;;;;;;;1.35;0.57;;;20.40;58.80;;;;;;5032725;28;20374;-77
2021/06/15 07:32:35;;;;;;;1.95;0.80;;;20.30;58.80;;;;;;5032164;28;20025;-76
2021/06/15 07:35:01;;;;;;;3.65;0.80;;;20.30;58.80;;;;;;5031449;28;20013;-77
2021/06/15 07:37:27;;;;;;;1.35;0.77;;;20.20;58.60;;;;;;5031787;28;20036;-77
2021/06/15 07:39:52;;;;;;;3.22;0.90;;;20.20;58.00;;;;;;5031358;28;20025;-78
2021/06/15 07:42:18;;;;;;;3.47;0.85;;;20.20;57.80;;;;;;5031749;28;20080;-77
2021/06/15 07:44:44;;;;;;;3.05;0.65;;;20.20;57.50;;;;;;5032788;28;20053;-77
2021/06/15 07:47:09;;;;;;;4.38;0.70;;;20.30;57.40;;;;;;5032712;28;20025;-78
2021/06/15 07:49:35;;;;;;;1.90;0.57;;;20.60;57.10;;;;;;5032371;28;20033;-77
2021/06/15 07:52:01;;;;;;;4.82;0.60;;;20.90;56.50;;;;;;5032618;28;20454;-77
2021/06/15 07:54:26;;;;;;;0.88;0.60;;;21.30;56.00;;;;;;5032121;28;20452;-76
2021/06/15 07:56:52;;;;;;;1.77;0.88;;;21.60;54.90;;;;;;5031190;28;20036;-76
2021/06/15 07:59:18;;;;;;;1.75;0.50;;;21.80;54.30;;;;;;5031949;28;20116;-77
2021/06/15 08:01:46;;;;;;;2.20;0.68;;;21.90;54.20;;;;;;5031056;28;20018;-76
2021/06/15 08:04:15;;;;;;;0.63;0.50;;;22.00;53.60;;;;;;5031866;28;20028;-77
2021/06/15 08:06:41;;;;;;;3.63;1.00;;;22.00;53.70;;;;;;5032383;28;20029;-78
2021/06/15 08:09:06;;;;;;;2.15;0.95;;;22.00;53.80;;;;;;5031985;28;20320;-77
2021/06/15 08:11:32;;;;;;;2.33;1.00;;;22.00;53.60;;;;;;5030429;28;20070;-78
2021/06/15 08:13:58;;;;;;;2.75;0.90;;;22.00;53.70;;;;;;5032528;28;20026;-77
2021/06/15 08:16:23;;;;;;;2.38;0.70;;;22.10;53.70;;;;;;5031260;28;20413;-77
2021/06/15 08:18:49;;;;;;;5.03;0.85;;;22.20;53.70;;;;;;5031884;28;20025;-77
2021/06/15 08:21:15;;;;;;;1.75;0.50;;;22.30;53.40;;;;;;5032048;28;20061;-77
2021/06/15 08:23:41;;;;;;;3.78;0.90;;;22.30;53.10;;;;;;5030204;28;20466;-77
2021/06/15 08:26:07;;;;;;;4.43;0.98;;;22.20;53.10;;;;;;5032141;28;20036;-77
2021/06/15 08:28:33;;;;;;;3.40;1.05;;;22.10;53.40;;;;;;5031555;28;20021;-77
2021/06/15 08:30:59;;;;;;;1.35;0.70;;;22.00;53.80;;;;;;5032517;28;20029;-77
2021/06/15 08:33:26;;;;;;;4.78;1.02;;;21.90;53.80;;;;;;5031523;28;20025;-77
2021/06/15 08:35:52;;;;;;;1.27;0.73;;;21.80;53.60;;;;;;5032263;28;20072;-76
2021/06/15 08:38:18;;;;;;;3.85;0.95;;;21.70;53.90;;;;;;5031589;28;20112;-77
2021/06/15 08:40:46;;;;;;;3.33;0.70;;;21.60;54.20;;;;;;5031745;28;20112;-78
2021/06/15 08:43:12;;;;;;;3.42;0.93;;;21.50;54.40;;;;;;5031627;28;20136;-76
2021/06/15 08:45:42;;;;;;;3.20;0.80;;;21.40;54.50;;;;;;5031280;28;20627;-77
2021/06/15 08:48:08;;;;;;;2.47;0.80;;;21.40;54.60;;;;;;5031614;28;20385;-78
2021/06/15 08:50:34;;;;;;;2.58;0.90;;;21.50;54.50;;;;;;5031217;28;20509;-76
2021/06/15 08:53:00;;;;;;;0.77;0.57;;;21.50;54.00;;;;;;5031722;28;20056;-77
2021/06/15 08:55:31;;;;;;;2.88;0.95;;;21.50;53.50;;;;;;5029954;28;20472;-77
2021/06/15 08:58:27;;;;;;;2.35;1.10;;;21.50;53.40;;;;;;5030481;28;20113;-77
2021/06/15 09:00:53;;;;;;;4.05;0.82;;;21.60;53.70;;;;;;5031631;28;20382;-78
2021/06/15 09:03:18;;;;;;;2.42;0.75;;;21.60;53.60;;;;;;5031324;28;20021;-77
2021/06/15 09:05:44;;;;;;;3.38;0.77;;;21.70;53.70;;;;;;5031053;28;20104;-76
2021/06/15 09:08:15;;;;;;;3.30;0.80;;;22.00;53.50;;;;;;5031513;28;20037;-76
2021/06/15 09:10:46;;;;;;;3.85;1.15;;;22.20;53.20;;;;;;5029777;28;20037;-77
2021/06/15 09:13:34;;;;;;;2.85;0.95;;;22.30;53.20;;;;;;5031674;28;20080;-78
2021/06/15 09:15:59;;;;;;;5.25;1.15;;;22.30;53.50;;;;;;5032073;28;20095;-76
2021/06/15 09:18:28;;;;;;;3.30;1.10;;;22.30;53.80;;;;;;5034933;28;20034;-77
2021/06/15 09:20:54;;;;;;;1.52;0.60;;;22.30;54.00;;;;;;5035659;28;20458;-77
2021/06/15 09:23:32;;;;;;;3.35;1.30;;;22.20;54.20;;;;;;5033663;28;20017;-76
2021/06/15 09:25:58;;;;;;;3.28;0.75;;;22.20;53.90;;;;;;5034290;28;20068;-77
2021/06/15 09:28:24;;;;;;;2.78;1.00;;;22.10;54.00;;;;;;5033235;28;20454;-78
2021/06/15 09:31:11;;;;;;;5.00;0.85;;;22.20;54.20;;;;;;5035539;28;20029;-76
2021/06/15 09:33:42;;;;;;;2.20;0.63;;;22.20;54.30;;;;;;5034722;28;20044;-76
2021/06/15 09:36:14;;;;;;;1.33;0.70;;;22.20;54.00;;;;;;5034076;28;20167;-78
2021/06/15 09:39:12;;;;;;;2.78;0.68;;;22.20;54.20;;;;;;5033211;28;20033;-76
2021/06/15 09:41:39;;;;;;;2.72;0.75;;;22.30;53.70;;;;;;5022187;28;20457;-77
2021/06/15 09:44:31;;;;;;;2.15;0.80;;;22.30;53.30;;;;;;5034592;28;20081;-77
2021/06/15 09:46:59;;;;;;;2.30;0.70;;;22.30;52.50;;;;;;5033693;28;20375;-77
2021/06/15 09:49:29;;;;;;;1.98;0.70;;;22.30;52.50;;;;;;5032956;28;20025;-76
2021/06/15 09:52:12;;;;;;;1.40;0.75;;;22.30;51.80;;;;;;5033309;28;20060;-78
2021/06/15 09:54:46;;;;;;;1.98;0.90;;;22.30;51.50;;;;;;5034323;28;20033;-77
2021/06/15 09:57:21;;;;;;;3.95;0.80;;;22.40;50.90;;;;;;5033415;28;20470;-78
2021/06/15 10:00:03;;;;;;;2.47;0.70;;;22.40;51.00;;;;;;5032874;28;20076;-76
2021/06/15 10:02:29;;;;;;;1.52;0.50;;;22.40;51.00;;;;;;5034063;28;20026;-78
2021/06/15 10:04:55;;;;;;;3.55;0.65;;;22.30;51.20;;;;;;5033394;28;20029;-77
2021/06/15 10:07:29;;;;;;;2.67;0.80;;;22.40;51.60;;;;;;5034481;28;20461;-77
2021/06/15 10:09:56;;;;;;;0.88;0.63;;;22.50;51.20;;;;;;5034544;28;20112;-78
2021/06/15 10:12:23;;;;;;;1.15;0.70;;;22.40;50.60;;;;;;5034195;28;20426;-77
2021/06/15 10:14:50;;;;;;;1.83;0.60;;;22.50;50.60;;;;;;5032550;28;20028;-77
2021/06/15 10:17:16;;;;;;;2.17;0.63;;;22.50;50.50;;;;;;5034488;28;20108;-78
2021/06/15 10:19:42;;;;;;;3.97;0.85;;;22.60;50.60;;;;;;5033471;28;20410;-77
2021/06/15 10:22:08;;;;;;;2.65;0.90;;;22.60;50.70;;;;;;5034321;28;20056;-76
2021/06/15 10:24:38;;;;;;;1.85;0.68;;;22.60;50.80;;;;;;5033584;28;20053;-77
2021/06/15 10:27:07;;;;;;;4.05;0.82;;;22.70;50.50;;;;;;5033350;28;20029;-77
2021/06/15 10:29:35;;;;;;;2.20;0.75;;;22.70;50.30;;;;;;5033678;28;20022;-78
2021/06/15 10:32:09;;;;;;;1.58;0.60;;;22.80;49.60;;;;;;5034215;28;20071;-77
2021/06/15 10:35:04;;;;;;;2.97;0.90;;;22.80;49.20;;;;;;5032345;28;20608;-76
2021/06/15 10:37:35;;;;;;;2.95;0.93;;;23.00;49.10;;;;;;5033346;28;20442;-78
2021/06/15 10:40:06;;;;;;;1.88;0.70;;;23.10;49.00;;;;;;5034033;28;20034;-77
2021/06/15 10:42:31;;;;;;;;;;;23.20;48.90;;;;;;5033873;28;20018;-78
2021/06/15 10:45:12;;;;;;;4.07;0.77;;;23.20;48.80;;;;;;5033466;28;19917;-78
2021/06/15 10:47:58;;;;;;;4.70;1.05;;;23.20;48.50;;;;;;5031910;28;20393;-78
2021/06/15 10:50:36;;;;;;;5.28;0.93;;;23.20;48.50;;;;;;5033971;28;20018;-77
2021/06/15 10:53:04;;;;;;;1.25;0.40;;;23.20;48.70;;;;;;5034120;28;20025;-76
2021/06/15 10:55:42;;;;;;;2.05;0.80;;;23.20;48.80;;;;;;5032981;28;20026;-78
2021/06/15 10:58:07;;;;;;;3.13;0.73;;;23.20;48.90;;;;;;5033537;28;20175;-77
2021/06/15 11:00:44;;;;;;;2.45;0.70;;;23.30;49.00;;;;;;5031636;28;20030;-77
2021/06/15 11:03:16;;;;;;;2.67;0.88;;;23.40;48.90;;;;;;5032611;28;20112;-77
2021/06/15 11:05:42;;;;;;;4.45;1.00;;;23.60;48.80;;;;;;5032761;28;20030;-77
2021/06/15 11:08:18;;;;;;;2.67;0.80;;;23.70;48.90;;;;;;5033635;28;20022;-78
2021/06/15 11:10:53;;;;;;;3.53;0.70;;;23.90;48.70;;;;;;5031593;28;20028;-77
2021/06/15 11:13:37;;;;;;;4.18;0.70;;;24.00;48.20;;;;;;5032155;28;20033;-77
2021/06/15 11:16:02;;;;;;;1.83;0.60;;;24.10;47.60;;;;;;5032206;28;20112;-77
2021/06/15 11:18:30;;;;;;;1.30;0.50;;;24.20;47.40;;;;;;5031962;28;20109;-78
2021/06/15 11:20:56;;;;;;;1.73;0.70;;;24.30;47.30;;;;;;5033359;28;20024;-77
2021/06/15 11:23:22;;;;;;;2.95;1.00;;;24.40;47.10;;;;;;5031963;28;20017;-78
2021/06/15 11:25:50;;;;;;;4.13;0.85;;;24.50;46.30;;;;;;5031271;28;20045;-77
2021/06/15 11:28:35;;;;;;;2.63;0.93;;;24.70;46.30;;;;;;5033241;28;20025;-77
2021/06/15 11:31:20;;;;;;;2.28;0.73;;;24.80;45.80;;;;;;5033234;28;20026;-78
2021/06/15 11:34:01;;;;;;;1.05;0.60;;;25.00;45.00;;;;;;5032413;28;20107;-78
2021/06/15 11:36:41;;;;;;;1.20;0.60;;;25.00;45.10;;;;;;5031536;28;20029;-78
2021/06/15 11:39:22;;;;;;;1.10;0.60;;;25.10;44.60;;;;;;5031860;28;20105;-77
2021/06/15 11:42:06;;;;;;;4.13;0.70;;;25.20;44.50;;;;;;5030909;28;20025;-77
2021/06/15 11:44:55;;;;;;;1.60;0.70;;;25.40;43.80;;;;;;5032682;28;20095;-76
2021/06/15 11:47:32;;;;;;;3.13;0.82;;;25.50;44.20;;;;;;5033014;28;20029;-78
2021/06/15 11:50:09;;;;;;;2.17;0.50;;;25.70;44.00;;;;;;5032861;28;20013;-78
2021/06/15 11:52:39;;;;;;;1.90;0.73;;;25.80;43.80;;;;;;5030849;28;20033;-77
2021/06/15 11:55:07;;;;;;;2.60;0.70;;;26.00;43.50;;;;;;5032695;28;20036;-78
2021/06/15 11:57:33;;;;;;;3.55;1.33;;;26.10;43.00;;;;;;5031036;28;20338;-77
2021/06/15 11:59:59;;;;;;;2.90;0.77;;;26.20;42.50;;;;;;5032838;28;20057;-78
2021/06/15 12:02:25;;;;;;;0.73;0.60;;;26.40;43.00;;;;;;5032775;28;20057;-78
2021/06/15 12:05:11;;;;;;;1.88;0.73;;;26.60;42.60;;;;;;5031946;28;20056;-78
2021/06/15 12:07:43;;;;;;;2.33;0.75;;;26.70;42.40;;;;;;5030045;28;20026;-77
2021/06/15 12:10:14;;;;;;;1.98;0.90;;;26.80;42.20;;;;;;5032374;28;20028;-77
2021/06/15 12:12:58;;;;;;;2.78;0.85;;;27.00;40.60;;;;;;5030238;28;20029;-78
2021/06/15 12:15:25;;;;;;;2.67;0.60;;;27.00;41.60;;;;;;5031126;28;20087;-78
2021/06/15 12:17:51;;;;;;;3.65;0.65;;;27.10;41.80;;;;;;5031478;28;20385;-77
2021/06/15 12:20:37;;;;;;;4.82;0.93;;;27.20;41.90;;;;;;5032194;28;20029;-78
2021/06/15 12:23:22;;;;;;;1.73;0.80;;;27.40;41.90;;;;;;5030905;28;20028;-78
2021/06/15 12:25:49;;;;;;;1.88;0.88;;;27.50;41.40;;;;;;5031343;28;20030;-76
2021/06/15 12:28:20;;;;;;;2.40;0.90;;;27.60;41.30;;;;;;5032068;28;20473;-76
2021/06/15 12:31:11;;;;;;;2.30;0.75;;;27.70;41.60;;;;;;5031515;28;20029;-77
2021/06/15 12:33:38;;;;;;;2.08;0.70;;;27.70;41.70;;;;;;5031456;28;20068;-79
2021/06/15 12:36:07;;;;;;;2.33;0.82;;;27.80;42.00;;;;;;5030586;28;20109;-78
2021/06/15 12:38:33;;;;;;;1.30;0.70;;;27.90;41.80;;;;;;5031566;28;20406;-77
2021/06/15 12:41:01;;;;;;;6.57;1.00;;;28.00;41.30;;;;;;5030119;28;20033;-77
2021/06/15 12:43:28;;;;;;;5.07;1.45;;;28.10;41.30;;;;;;5031675;28;20041;-78
2021/06/15 12:46:06;;;;;;;4.88;1.00;;;28.20;41.50;;;;;;5031347;28;20065;-77
2021/06/15 12:48:32;;;;;;;3.17;0.80;;;28.40;41.40;;;;;;5030575;28;20026;-78
2021/06/15 12:51:13;;;;;;;2.03;0.90;;;28.50;40.80;;;;;;5029414;28;20416;-78
2021/06/15 12:53:40;;;;;;;4.15;1.20;;;28.60;40.20;;;;;;5031295;28;20323;-77
2021/06/15 12:56:25;;;;;;;2.22;0.70;;;28.50;40.20;;;;;;5030463;28;20033;-77
2021/06/15 12:58:52;;;;;;;1.50;0.80;;;28.60;40.10;;;;;;5030009;28;20036;-78
2021/06/15 13:01:33;;;;;;;2.55;0.93;;;28.40;40.20;;;;;;5031743;28;20025;-78
2021/06/15 13:03:58;;;;;;;1.75;0.70;;;28.40;40.40;;;;;;5029889;28;20416;-78
2021/06/15 13:06:27;;;;;;;3.42;1.00;;;28.60;40.60;;;;;;5032124;28;20470;-77